嘉手納基地の過去48時間の天気

嘉手納基地 (Kadena ab)

現在時刻: 7/23 03:36 JST (7/22 18:36 UTC) 以下の時間は現地時間です。

過去48時間のMETAR気象情報
時間 風向 風速(m/s) 視程 気温(℃) 湿度(%) 気圧(hPa) 天気現象
23 03:26 南東 7 10km以上 28 84 1006.5
23 02:56 南東 6 10km以上 27.8 87 1006.5
23 01:56 東南東 7 10km以上 27.8 88 1006.5
23 01:46 東南東 7 10km以上 28 89 1006.5
23 00:56 南東 6 10km以上 27.9 88 1007.2
23 00:46 南東 7 10km以上 28 89 1006.9
23 00:36 南東 5 10km以上 28 89 1007.2
23 00:26 東南東 8 10km以上 28 89 1007.2
22 23:56 東南東 6 10km以上 27.9 89 1007.6
22 23:16 東南東 6 10km以上 28 89 1007.6
22 23:06 東南東 7 10km以上 28 89 1007.2
22 22:56 東南東 8 10km以上 27.9 88 1007.2
22 22:46 東南東 8 10km以上 28 89 1007.2
22 21:56 東南東 9 10km以上 28 88 1006.9
22 20:56 東南東 5 10km以上 28.1 88 1007.2
22 19:56 南東 6 10km以上 28.2 87 1006.9
22 19:26 南東 7 10km以上 28 89 1006.6
22 18:56 南東 6 10km以上 28.5 85 1006.2
22 18:26 南東 7 10km以上 29 84 1006.2
22 17:56 南東 8 10km以上 29 82 1005.9
22 17:36 南東 7 10km以上 29 84 1005.9
22 17:06 南東 5 10km以上 30 79 1005.9
22 16:56 南東 7 10km以上 29.5 79 1005.9
22 15:56 南東 7 10km以上 30.1 78 1005.9
22 15:46 南東 8 10km以上 30 79 1005.9
22 15:26 南東 7 10km以上 30 79 1006.2
22 15:06 南南東 6 10km以上 30 79 1006.2
22 14:56 南南東 8 10km以上 30.1 80 1006.2
22 14:37 南東 7 10km以上 30 79 1006.2
22 14:27 南南東 8 10km以上 30 79 1006.2
22 14:17 南南東 7 10km以上 30 79 1006.2
22 13:56 南東 8 10km以上 30.4 79 1006.2
22 12:56 南東 9 10km以上 29.9 79 1006.5
22 11:56 南東 9 10km以上 30 80 1006.5
22 11:23 南東 10 10km以上 29 89 1005
22 11:13 南東 6 10km以上 29 84 1005 弱い雨
22 10:56 南東 9 10km以上 29.7 78 1006.2
22 09:56 南東 8 10km以上 29.7 78 1005.9
22 08:56 南東 9 10km以上 29.4 79 1005.9
22 07:56 南東 8 10km以上 28.6 82 1005.5
22 06:56 南東 7 10km以上 27.5 84 1005.2
22 05:56 南南東 9 10km以上 27.4 84 1004.5
22 04:56 7 - 27.5 85 1003.8
22 04:36 南南東 7 10km以上 27 89 1003.2
22 04:26 南南東 6 10km以上 28 84 1003.2
22 03:56 南南東 8 10km以上 27.6 87 1002.8
22 02:56 南南東 7 10km以上 27.8 87 1002.5
22 01:56 8 10km以上 27.8 85 1002.5
22 00:56 8 10km以上 27.7 86 1002.5
22 00:16 南南東 8 10km以上 28 84 1002.5
21 23:56 9 10km以上 27.8 86 1002.1
21 23:26 12 10km以上 28 84 1002
21 22:56 9 10km以上 27.6 88 1001.5
21 22:45 11 10km以上 28 89 1001.5
21 22:25 8 10km以上 27 94 1001.2 もや
21 22:17 9 10km以上 28 84 1001.1 弱い霧雨
21 21:56 7 10km以上 27.5 91 1001.1
21 21:11 9 10km以上 27 94 1000.5
21 21:06 南南西 8 10km以上 27 94 1000.1 強い雨
21 20:56 6 10km以上 27.6 90 1000.1 弱い雨
21 20:46 6 10km以上 28 89 1000.1
21 19:56 7 10km以上 27.9 88 999.5
21 18:56 7 10km以上 27.9 88 998.1
21 18:41 8 10km以上 28 89 997.8
21 18:34 8 10km以上 28 89 997.8 弱い雨
21 18:06 8 10km以上 28 89 997.1
21 17:56 8 10km以上 28.5 86 996.7
21 17:16 9 10km以上 28 89 995.7
21 16:56 南南西 9 10km以上 27.5 89 995
21 16:47 南南西 10 10km以上 27 89 995
21 16:07 南南西 12 10km以上 27 94 994
21 15:57 南南西 11 10km以上 27 94 993.7 もや
21 15:50 南南西 10 4850m 27 94 994 弱い雨 もや
21 15:40 南南西 12 10km以上 27 94 993.7 雨 もや
21 15:23 南南西 12 8050m 27 94 993.7 弱い雨 もや
21 15:13 南南西 13 10km以上 27 94 993.4 弱い雨
21 14:59 南南西 12 10km以上 27 94 993 弱い雨
21 14:56 南南西 11 10km以上 27.4 90 993
21 14:46 南南西 12 10km以上 28 89 993
21 14:36 南南西 11 6450m 27 94 992.7 もや
21 14:26 南南西 11 2800m 27 94 992.7 もや
21 14:16 南南西 8 2000m 27 94 992.3 もや
21 14:06 南南西 7 4450m 27 94 992 もや
21 13:56 南南西 8 3200m 27.3 93 992 もや
21 13:16 南南西 9 10km以上 29 84 991.6
21 12:56 南南西 11 10km以上 28.9 85 991.3
21 12:46 南南西 11 10km以上 28 89 991.3
21 12:26 南南西 9 10km以上 28 89 991
21 12:06 南西 10 10km以上 27 94 990.6 もや
21 11:56 南南西 9 10km以上 27.4 92 990.6
21 11:44 南南西 8 10km以上 27 94 990.3
21 11:34 南西 9 10km以上 27 94 990
21 11:24 南西 9 4850m 27 94 990 もや
21 11:23 南西 10 4850m 27 94 990 弱い雨 もや
21 11:13 南西 9 4000m 27 94 989.6 弱い雨 もや
21 11:03 南西 8 4450m 27 94 989.3 弱い雨 もや
21 10:56 南西 11 4850m 26.9 95 989.3 もや
21 10:46 南西 9 10km以上 27 94 988.9
21 10:36 南西 9 10km以上 27 94 988.6
21 10:06 南西 7 8050m 27 94 987.6 もや
21 09:56 西南西 7 4450m 27 96 987.3 もや
21 09:44 西南西 7 6450m 27 94 987.3 もや
21 09:41 西南西 8 6450m 27 94 987.3 もや
21 09:26 西南西 7 4850m 27 94 986.9 もや
21 09:06 西 5 3200m 27 100 986.6 もや
21 08:56 西 5 10km以上 27.6 93 986.6 もや
21 08:36 北西 3 10km以上 27 94 986.2
21 08:26 西 4 8050m 27 94 985.9 もや
21 08:16 西 4 10km以上 27 94 985.9
21 07:56 西北西 4 10km以上 26.5 93 986.2
21 07:37 北西 5 10km以上 26 94 986.6
21 07:27 北北西 5 10km以上 26 94 986.6
21 07:07 6 10km以上 26 94 986.9
21 06:57 6 4850m 26 94 986.9 もや
21 06:49 北北西 5 4850m 26 94 986.9 弱い霧雨 もや
21 06:39 北北西 5 10km以上 26 94 987.3 弱い霧雨
21 06:32 北西 4 10km以上 26 94 987.6
21 06:12 北北西 6 10km以上 26 94 987.9
21 05:56 4 10km以上 26 92 988.3 弱い霧雨
21 05:51 5 10km以上 26 94 988.3
21 05:41 4 10km以上 26 89 988.3
21 05:31 5 10km以上 26 89 988.6
21 05:28 北北東 7 10km以上 25 94 988.6 もや
21 05:18 北東 8 4850m 26 89 988.6 もや
21 05:08 北東 9 10km以上 26 94 988.9
21 04:58 北東 9 8050m 26 94 988.9 弱い雨 もや
21 04:56 北東 9 4850m 26.2 93 988.9 もや
21 04:42 北東 10 10km以上 26 94 989 弱い雨
21 04:37 北東 9 10km以上 26 94 988.9
21 04:27 北東 9 4000m 26 94 989.3 もや
RODN 221826Z AUTO 14013G18KT 10SM BKN015 BKN190 28/25 A2971 RMK AO2 CIG 015V190 BKN015 V FEW SLP065
RODN 221756Z AUTO 13011G17KT 10SM SCT190 28/25 A2971 RMK AO2 SLP065 T02780254 10282 20278 56010
RODN 221656Z AUTO 12013G17KT 10SM FEW011 SCT018 28/26 A2971 RMK AO2 SLP065 T02780256
RODN 221646Z AUTO 12013KT 10SM SCT011 28/26 A2971 RMK AO2 SLP065
RODN 221556Z AUTO 13012KT 10SM BKN011 28/26 A2973 RMK AO2 BKN V SCT SLP072 T02790257
RODN 221546Z AUTO 13014G18KT 10SM SCT010 28/26 A2972 RMK AO2 SLP069
RODN 221536Z AUTO 13010KT 10SM BKN010 28/26 A2973 RMK AO2 BKN V SCT SLP072
RODN 221526Z AUTO 12015G18KT 10SM SCT010 28/26 A2973 RMK AO2 SLP072
RODN 221456Z AUTO 12012KT 10SM SCT010 SCT014 28/26 A2974 RMK AO2 SLP076 T02790259 403050273 53003
RODN 221416Z AUTO 12012G20KT 10SM SCT011 28/26 A2974 RMK AO2 SLP076
RODN 221406Z AUTO 12013G22KT 10SM BKN011 28/26 A2973 RMK AO2 BKN V SCT SLP072
RODN 221356Z AUTO 12015G21KT 10SM SCT011 28/26 A2973 RMK AO2 SLP072 T02790257
RODN 221346Z AUTO 12016G19KT 10SM SCT011 28/26 A2973 RMK AO2 SLP072
RODN 221256Z AUTO 12017G22KT 10SM BKN011 28/26 A2972 RMK AO2 CIG 011V180 BKN V SCT SLP069 T02800258
RODN 221156Z AUTO 12009KT 10SM FEW010 28/26 A2973 RMK AO2 SLP072 T02810259 10303 20281 52013
RODN 221056Z AUTO 13012KT 10SM SCT012 SCT019 28/26 A2972 RMK AO2 SLP069 T02820258
RODN 221026Z AUTO 13013KT 10SM BKN014 28/26 A2971 RMK AO2 SLP066
RODN 220956Z AUTO 13012KT 10SM FEW013 29/26 A2970 RMK AO2 SLP062 T02850257
RODN 220926Z AUTO 13014KT 10SM SCT016 29/26 A2970 RMK AO2 SLP062
RODN 220856Z AUTO 13016G21KT 10SM SCT015 BKN021 29/26 A2969 RMK AO2 SLP059 T02900256 55002
RODN 220836Z AUTO 13014G20KT 10SM SCT017 29/26 A2969 RMK AO2 SLP059
RODN 220806Z AUTO 13010G17KT 10SM BKN016 30/26 A2969 RMK AO2 BKN V SCT SLP059
RODN 220756Z AUTO 14013G16KT 10SM SCT016 30/25 A2969 RMK AO2 SLP059 T02950254
RODN 220656Z AUTO 14014KT 10SM SCT014 SCT021 30/26 A2969 RMK AO2 SLP059 T03010258
RODN 220646Z AUTO 14015G19KT 10SM SCT014 SCT024 30/26 A2969 RMK AO2 SLP059
RODN 220626Z AUTO 14014G21KT 10SM SCT016 BKN022 30/26 A2970 RMK AO2 BKN V SCT SLP062
RODN 220606Z AUTO 15012G21KT 10SM FEW015 SCT022 30/26 A2970 RMK AO2 SLP062
RODN 220556Z AUTO 15016G19KT 10SM BKN015 30/26 A2970 RMK AO2 SLP062 60001 T03010262 10305 20284 58003
RODN 220537Z AUTO 13014G20KT 10SM BKN015 BKN025 30/26 A2970 RMK AO2 SLP062
RODN 220527Z AUTO 15015G20KT 10SM SCT017 BKN025 30/26 A2970 RMK AO2 SLP062
RODN 220517Z AUTO 15013KT 10SM BKN017 BKN026 BKN180 30/26 A2970 RMK AO2 SLP062
RODN 220456Z AUTO 13015G23KT 10SM SCT018 SCT120 BKN140 BKN170 BKN200 30/26 A2970 RMK AO2 SLP062 T03040263
RODN 220356Z AUTO 13018G26KT 10SM SCT018 SCT100 SCT140 BKN170 BKN200 30/26 A2971 RMK AO2 PK WND 13026/52 SLP065 T02990258
RODN 220256Z AUTO 14018G24KT 10SM FEW120 FEW140 SCT160 SCT190 SCT220 30/26 A2971 RMK AO2 PK WND 13026/42 RAB13E23 SLP065 P0001 60001 T03000261 52007
RODN 220223Z AUTO 13020G25KT 10SM FEW017 FEW140 SCT180 SCT200 29/27 A2968 RMK AO2 RAB13E23 SLPNO
RODN 220213Z AUTO 14012G24KT 8SM -RA FEW017 FEW022 SCT180 SCT200 29/26 A2969 RMK AO2 RAB13 SLPNO
RODN 220156Z AUTO 14018G25KT 10SM FEW018 FEW170 SCT200 30/25 A2970 RMK AO2 PK WND 13026/38 SLP062 T02970254
RODN 220056Z AUTO 14016G27KT 10SM FEW017 SCT023 30/25 A2969 RMK AO2 PK WND 13027/44 SLP059 T02970254
RODN 212356Z AUTO 13018G24KT 10SM FEW017 29/25 A2969 RMK AO2 SLP059 T02940253 10294 20273 52013
RODN 212256Z AUTO 14016G21KT 10SM CLR 29/25 A2968 RMK AO2 SLP055 T02860252
RODN 212156Z AUTO 14014G20KT 10SM CLR 28/25 A2967 RMK AO2 SLP052 T02750245
RODN 212056Z 15017G21KT 10SM FEW020 27/24 A2965 RMK AO2A PK WND 14026/19 SLP045 T02740244 53019 $
RODN 211956Z AUTO 17014G20KT M M M 28/25 A2963 RMK AO2 PRESRR SLP038 T02750247 RVRNO $
RODN 211936Z AUTO 16013G19KT 10SM SCT015 SCT021 27/25 A2961 RMK AO2 SLP032 $
RODN 211926Z AUTO 16011KT 10SM SCT015 BKN026 28/25 A2961 RMK AO2 CIG 020V026 SLP032 $
RODN 211856Z AUTO 16015G19KT 10SM SCT015 28/25 A2960 RMK AO2 SLP028 T02760252 $
RODN 211756Z AUTO 16014KT 10SM FEW016 28/25 A2959 RMK AO2 PK WND 15026/23 SLP025 60015 T02780254 10279 20270 51004 $
RODN 211656Z AUTO 17015G25KT 10SM FEW017 SCT025 28/25 A2959 RMK AO2 PK WND 16029/15 SLP025 T02780250 $
RODN 211556Z AUTO 17015G21KT 10SM FEW019 28/25 A2959 RMK AO2 PK WND 14029/07 SLP025 T02770251 $
RODN 211516Z AUTO 16015G24KT 10SM SCT018 28/25 A2959 RMK AO2 SLP025 $
RODN 211456Z 17017G31KT 10SM BKN022 28/25 A2958 RMK AO2A PK WND 18031/47 SLP021 60015 T02780252 402910254 52021 $
RODN 211426Z COR AUTO 17023KT 10SM BKN016 28/25 A2958 RMK AO2 SLPNO ALSTG ESTMD RVRNO $ COR 1435
RODN 211356Z AUTO 17018G27KT 10SM BKN016 BKN023 28/25 A2956 RMK AO2 PK WND 14030/44 DZB16E25 CIG 016V022 SLP015 P0003 T02760254 $
RODN 211345Z AUTO 17021G26KT 10SM FEW001 SCT015 BKN022 28/26 A2956 RMK AO2 DZB16E25 CIG 014V022 SLP015 $
RODN 211325Z AUTO 17015G27KT 6SM BR FEW001 BKN013 BKN021 27/26 A2955 RMK AO2 DZB16E25 CIG 013V021 SLP012 $
RODN 211317Z AUTO 17017G25KT 10SM -DZ SCT014 BKN021 28/25 A2955 RMK AO2 DZB16 CIG 014V021 SLP011 $
RODN 211256Z AUTO 18014G20KT 10SM BKN014 BKN021 28/26 A2955 RMK AO2 PK WND 15027/06 RAE11 SLP011 P0012 T02750259 $
RODN 211211Z AUTO 17017G23KT 7SM FEW001 BKN012 OVC018 27/26 A2953 RMK AO2 RAE11 SLP005 $
RODN 211206Z AUTO 20016G23KT 7SM +RA FEW001 BKN012 OVC018 27/26 A2952 RMK AO2 CIG 012V019 BKN V SCT SLP001 $
RODN 211156Z AUTO 18012G18KT 8SM -RA FEW001 BKN015 BKN022 28/26 A2952 RMK AO2 PK WND 16027/10 RAB50 CIG 015V023 BKN015 V SCT SLP001 P0001 60013 T02760258 10285 20270 52035 $
RODN 211146Z AUTO 17011KT 10SM SCT015 BKN023 28/26 A2952 RMK AO2 SLP001 $
RODN 211056Z AUTO 18014G21KT 10SM SCT014 28/26 A2950 RMK AO2 PK WND 17027/18 SLP995 P0001 T02790257 $
RODN 210956Z AUTO 18014G22KT 10SM SCT015 28/26 A2946 RMK AO2 PK WND 16026/40 RAB34E41 SLP981 P0000 T02790257 $
RODN 210941Z AUTO 19016G20KT 9SM BKN016 BKN021 28/26 A2945 RMK AO2 RAB34E41 SLP978 $
RODN 210934Z AUTO 19016G22KT 8SM -RA BKN016 BKN021 28/26 A2945 RMK AO2 RAB34 SLP978 $
RODN 210906Z AUTO 19016G23KT 10SM BKN014 BKN020 28/26 A2943 RMK AO2 CIG 014V022 SLP971 $
RODN 210856Z AUTO 19016G27KT 10SM SCT015 29/26 A2942 RMK AO2 PK WND 17029/26 SLP967 60011 T02850259 52038 $
RODN 210816Z AUTO 18017G23KT 10SM SCT014 28/26 A2939 RMK AO2 PRESRR SLP957 $
RODN 210756Z AUTO 20017G28KT 10SM BKN014 28/26 A2937 RMK AO2 PK WND 21033/14 RAE0656 CIG 014V019 BKN V SCT SLP950 P0000 T02750255 $
RODN 210747Z AUTO 20019G29KT 10SM SCT014 BKN019 27/25 A2937 RMK AO2 RAE0656 CIG 013V021 SLP950 $
RODN 210707Z AUTO 20023G30KT 10SM FEW001 BKN013 27/26 A2934 RMK AO2 RAE0656 CIG 008V015 CIG 010 RWY23 SLP940 $
RODN 210657Z AUTO 21022G28KT 6SM BR FEW002 BKN008 OVC015 27/26 A2933 RMK AO2 RAE56 SLP937 $
RODN 210650Z AUTO 20020G30KT 3SM -RA BR SCT002 BKN008 27/26 A2934 RMK AO2 RAB0559E08RAB13E35RAB40 BKN V OVC SLP940 $
RODN 210640Z AUTO 20023G31KT 6SM RA BR FEW002 BKN008 27/26 A2933 RMK AO2 RAB0559E08RAB13E35RAB40 CIG 008V010 SLP937 $
RODN 210623Z AUTO 20023G33KT 5SM -RA BR FEW002 BKN010 OVC034 27/26 A2933 RMK AO2 RAB0559E08RAB13 SLP937 $
RODN 210613Z AUTO 20025G35KT 7SM -RA BKN010 OVC030 27/26 A2932 RMK AO2 RAB0559E08RAB13 SLP934 $
RODN 210559Z AUTO 20023G30KT 9SM -RA FEW002 BKN010 27/26 A2931 RMK AO2 RAB59 CIG 010V012 SLP930 $
RODN 210556Z AUTO 20021G30KT 10SM FEW002 BKN010 BKN013 27/26 A2931 RMK AO2 PK WND 19034/38 CIG 010V014 SLP930 60003 T02740256 10291 20265 52024 $
RODN 210546Z AUTO 20024G34KT 10SM SCT002 BKN014 28/26 A2931 RMK AO2 CIG 002V014 CIG 011 RWY23 SLP930 $
RODN 210536Z AUTO 20021G31KT 4SM BR BKN002 BKN015 27/26 A2930 RMK AO2 SLP927 $
RODN 210526Z AUTO 21022G29KT 1 3/4SM BR BKN001 BKN006 OVC015 27/26 A2930 RMK AO2 VIS 1 1/4V1 3/4 SLP927 $
RODN 210516Z AUTO 20016G26KT 1 1/4SM BR BKN002 OVC007 27/26 A2929 RMK AO2 VIS 1 1/4V2 3/4 SLP923 $
RODN 210506Z AUTO 20014KT 2 3/4SM BR BKN002 BKN008 OVC017 27/26 A2928 RMK AO2 VIS 1 5/8V2 3/4 VIS 2 RWY23 SLP920 $
RODN 210456Z AUTO 20016G23KT 2SM BR SCT002 BKN010 OVC017 27/26 A2928 RMK AO2 PK WND 21030/35 VIS 2V6 CIG 010V012 SLP920 T02730260 $
RODN 210416Z AUTO 21018G25KT 10SM BKN011 OVC020 29/26 A2927 RMK AO2 SLP916 $
RODN 210356Z AUTO 20022G29KT 10SM SCT011 BKN022 29/26 A2926 RMK AO2 CIG 008V023 SLP913 P0001 T02890261 $
RODN 210346Z AUTO 21021G26KT 10SM BKN008 BKN022 BKN035 BKN210 28/26 A2926 RMK AO2 CIG 008V022 SLP913 $
RODN 210326Z AUTO 20018G25KT 8SM FEW002 BKN007 OVC022 28/26 A2925 RMK AO2 CIG 007V012 BKN V SCT SLP910 $
RODN 210306Z AUTO 22020G25KT 6SM BR FEW002 BKN008 OVC015 27/26 A2924 RMK AO2 CIG 006V008 SLP906 $
RODN 210256Z AUTO 21017G25KT 10SM BKN006 OVC019 27/26 A2924 RMK AO2 PK WND 20026/10 RAB03E23DZB23E24 SLP906 P0000 60002 T02740259 52040 $
RODN 210244Z AUTO 21016G23KT 10SM BKN006 OVC020 27/26 A2923 RMK AO2 RAB03E23DZB23E24 CIG 002V006 SLP903 $
RODN 210234Z AUTO 22018G22KT 9SM BKN002 BKN006 OVC020 27/26 A2922 RMK AO2 RAB03E23DZB23E24 BKN002 V OVC SLP900 $
RODN 210224Z AUTO 23017G23KT 3SM BR OVC002 27/26 A2922 RMK AO2 VIS 1 3/8 RWY23 RAB03E23DZB23E24 SLP900 $
RODN 210223Z AUTO 23020G23KT 3SM -RA BR OVC002 27/26 A2922 RMK AO2 VIS 1 1/4 RWY23 RAB03E23DZB23 SLP900 $
RODN 210213Z AUTO 23018G24KT 2 1/2SM -RA BR OVC003 27/26 A2921 RMK AO2 VIS 2 1/2V3 VIS 1 7/8 RWY23 RAB03 OVC V BKN SLP896 $
RODN 210203Z AUTO 23016G27KT 2 3/4SM -RA BR BKN004 OVC008 27/26 A2920 RMK AO2 VIS 2 1/2V4 VIS 2 1/4 RWY23 RAB03 SLP893 $
RODN 210156Z AUTO 22021G27KT 3SM BR BKN004 OVC008 27/26 A2920 RMK AO2 VIS 2 1/4 RWY23 SLP893 T02690260 $
RODN 210146Z AUTO 22018G23KT 8SM BKN004 OVC008 27/26 A2919 RMK AO2 SLP889 $
RODN 210136Z AUTO 23017G23KT 7SM OVC003 27/26 A2918 RMK AO2 PRESRR SLP886 $
RODN 210106Z AUTO 23013KT 5SM BR OVC002 27/26 A2915 RMK AO2 VIS 2 1/2 RWY23 SLP876 $
RODN 210056Z AUTO 24014KT 2 3/4SM BR OVC002 27/26 A2914 RMK AO2 VIS 2 1/2V3 VIS 1 1/4 RWY23 DZB15E20RAB20E25RAB34E41RAB43E44 SLP873 P0002 T02700263 $
RODN 210044Z AUTO 25014KT 4SM BR OVC002 27/26 A2914 RMK AO2 VIS 1 7/8 RWY23 DZB15E20RAB20E25RAB34E41RAB43E44 SLP873 $
RODN 210041Z AUTO 25015KT 4SM BR OVC002 27/26 A2914 RMK AO2 VIS 2 RWY23 DZB15E20RAB20E25RAB34E41 SLP873 $
RODN 210026Z AUTO 25013KT 3SM BR OVC002 27/26 A2913 RMK AO2 VIS 1 7/8 RWY23 DZB15E20RAB20E25 SLP869 $
RODN 210006Z AUTO 28010KT 2SM BR BKN002 BKN006 OVC011 27/27 A2912 RMK AO2 VIS 2V6 CIG 002V005 SLP866 $
RODN 202356Z AUTO 28009KT 6SM BR BKN005 OVC011 28/26 A2912 RMK AO2 CIG 005V011 BKN V SCT SLP866 60013 70039 T02760263 10276 20254 55017 $
RODN 202336Z AUTO 31006KT 7SM BKN005 OVC011 27/26 A2911 RMK AO2 BKN V OVC SLP862 $
RODN 202326Z AUTO 27007KT 5SM BR BKN004 OVC010 27/26 A2910 RMK AO2 SLP859 $
RODN 202316Z AUTO 28008KT 8SM OVC005 27/26 A2910 RMK AO2 SLP859 $
RODN 202256Z AUTO 30008KT 10SM OVC006 27/25 A2911 RMK AO2 DZE2156 OVC V BKN SLP862 T02650252 $
RODN 202237Z AUTO 32010G16KT 10SM BKN007 26/25 A2912 RMK AO2 DZE2156 CIG 007V009 SLP866 $
RODN 202227Z AUTO 33010KT 10SM BKN009 26/25 A2912 RMK AO2 DZE2156 CIG 009V011 CIG 008 RWY23 SLP866 $
RODN 202207Z AUTO 35011G17KT 8SM FEW002 FEW006 OVC011 26/25 A2913 RMK AO2 DZE2156 CIG 011V015 CIG 010 RWY23 SLP869 $
RODN 202157Z AUTO 35011G22KT 3SM BR FEW002 SCT006 OVC015 26/25 A2913 RMK AO2 VIS 2 1/2 RWY23 DZE56 OVC V BKN CIG 010 RWY23 SLP869 $
RODN 202149Z AUTO 34010G15KT 3SM -DZ BR FEW002 SCT006 BKN015 OVC026 26/25 A2913 RMK AO2 VIS 2 1/4 RWY23 DZE12DZB39 CIG 010 RWY23 SLP869 $
RODN 202139Z AUTO 33009KT 7SM -DZ OVC021 26/25 A2914 RMK AO2 DZE12DZB39 SLP873 $
RODN 202132Z AUTO 32008KT 10SM FEW018 OVC024 26/25 A2915 RMK AO2 DZE12 SLP876 $
RODN 202112Z AUTO 34011KT 7SM FEW014 OVC022 26/25 A2916 RMK AO2 DZE12 CIG 019 RWY23 SLP879 $
RODN 202056Z AUTO 36008KT 8SM -DZ SCT015 OVC020 26/25 A2917 RMK AO2 PK WND 04029/09 RAB1958E08DZB52 CIG 015V020 CIG 017 RWY23 SLP883 P0003 60012 T02600246 57031 $
RODN 202051Z AUTO 35009KT 10SM OVC017 26/25 A2917 RMK AO2 RAB1958E08 CIG 015V026 SLP883 $
RODN 202041Z AUTO 35008KT 10SM SCT016 OVC026 26/24 A2917 RMK AO2 RAB1958E08 CIG 016V026 SLP883 $
RODN 202031Z AUTO 36010KT 7SM FEW015 OVC025 26/24 A2918 RMK AO2 WSHFT 18 RAB1958E08 CIG 015 RWY23 SLP886 $
RODN 202028Z AUTO 02014KT 6SM BR FEW015 OVC025 25/24 A2918 RMK AO2 RAB1958E08 CIG 015 RWY23 SLP886 $
RODN 202018Z AUTO 04015G29KT 3SM BR FEW015 OVC023 26/24 A2918 RMK AO2 RAB1958E08 CIG 014 RWY23 SLP886 $
RODN 202008Z AUTO 04018G22KT 8SM FEW002 FEW011 OVC021 26/25 A2919 RMK AO2 RAB1958E08 SLP889 $
RODN 201958Z AUTO 04017G29KT 5SM -RA BR FEW002 SCT011 OVC021 26/25 A2919 RMK AO2 RAB58 CIG 011V021 CIG 012 RWY23 SLP889 $
RODN 201956Z AUTO 04018G29KT 3SM BR FEW002 SCT011 OVC018 26/25 A2919 RMK AO2 PK WND 03030/46 RAB1856E07RAB42E52 CIG 011V018 CIG 013 RWY23 SLP889 P0005 T02620249 $
RODN 201942Z AUTO 04020G24KT 9SM -RA FEW002 OVC013 26/25 A2919 RMK AO2 RAB1856E07RAB42 SLP890 $
RODN 201937Z AUTO 04017G22KT 9SM FEW002 OVC013 26/25 A2919 RMK AO2 RAB1856E07 SLP889 $
RODN 201927Z AUTO 04018G27KT 2 1/2SM BR FEW002 OVC016 26/25 A2920 RMK AO2 VIS 2 1/2V4 RAB1856E07 CIG 012 RWY23 SLP893 $